sensor_id;sensor_type;location;lat;lon;timestamp;P1;durP1;ratioP1;P2;durP2;ratioP2
56321;SDS011;42227;6.376;-10.782;2024-02-21T00:00:41;76.43;;;42.08;;
56321;SDS011;42227;6.376;-10.782;2024-02-21T00:03:09;57.30;;;33.03;;
56321;SDS011;42227;6.376;-10.782;2024-02-21T00:05:37;45.90;;;25.73;;
56321;SDS011;42227;6.376;-10.782;2024-02-21T00:08:06;39.80;;;22.27;;
56321;SDS011;42227;6.376;-10.782;2024-02-21T00:10:34;34.60;;;19.90;;
56321;SDS011;42227;6.376;-10.782;2024-02-21T00:13:03;46.08;;;25.90;;
56321;SDS011;42227;6.376;-10.782;2024-02-21T00:15:31;36.70;;;25.05;;
56321;SDS011;42227;6.376;-10.782;2024-02-21T00:18:00;37.08;;;19.23;;
56321;SDS011;42227;6.376;-10.782;2024-02-21T00:20:28;26.73;;;18.65;;
56321;SDS011;42227;6.376;-10.782;2024-02-21T00:22:57;43.90;;;23.40;;
56321;SDS011;42227;6.376;-10.782;2024-02-21T00:25:25;49.72;;;25.20;;
56321;SDS011;42227;6.376;-10.782;2024-02-21T00:27:54;27.33;;;14.35;;
56321;SDS011;42227;6.376;-10.782;2024-02-21T00:30:22;22.45;;;15.85;;
56321;SDS011;42227;6.376;-10.782;2024-02-21T00:32:50;35.85;;;17.55;;
56321;SDS011;42227;6.376;-10.782;2024-02-21T00:35:18;43.20;;;22.33;;
56321;SDS011;42227;6.376;-10.782;2024-02-21T00:37:47;23.98;;;15.38;;
56321;SDS011;42227;6.376;-10.782;2024-02-21T00:40:15;23.70;;;16.50;;
56321;SDS011;42227;6.376;-10.782;2024-02-21T00:42:44;40.13;;;22.02;;
56321;SDS011;42227;6.376;-10.782;2024-02-21T00:45:12;34.38;;;23.45;;
56321;SDS011;42227;6.376;-10.782;2024-02-21T00:47:41;33.17;;;19.35;;
56321;SDS011;42227;6.376;-10.782;2024-02-21T00:50:10;41.28;;;25.48;;
56321;SDS011;42227;6.376;-10.782;2024-02-21T00:52:38;37.50;;;21.63;;
56321;SDS011;42227;6.376;-10.782;2024-02-21T00:55:06;36.25;;;17.58;;
56321;SDS011;42227;6.376;-10.782;2024-02-21T00:57:35;26.30;;;15.18;;
56321;SDS011;42227;6.376;-10.782;2024-02-21T01:00:04;33.08;;;20.83;;
56321;SDS011;42227;6.376;-10.782;2024-02-21T01:02:33;46.53;;;30.13;;
56321;SDS011;42227;6.376;-10.782;2024-02-21T01:05:01;82.15;;;51.00;;
56321;SDS011;42227;6.376;-10.782;2024-02-21T01:07:30;57.80;;;37.15;;
56321;SDS011;42227;6.376;-10.782;2024-02-21T01:09:58;63.25;;;37.88;;
56321;SDS011;42227;6.376;-10.782;2024-02-21T01:12:27;56.33;;;35.80;;
56321;SDS011;42227;6.376;-10.782;2024-02-21T01:14:55;61.65;;;30.58;;
56321;SDS011;42227;6.376;-10.782;2024-02-21T01:17:24;58.35;;;28.15;;
56321;SDS011;42227;6.376;-10.782;2024-02-21T01:19:52;47.63;;;24.60;;
56321;SDS011;42227;6.376;-10.782;2024-02-21T01:22:20;64.97;;;34.25;;
56321;SDS011;42227;6.376;-10.782;2024-02-21T01:24:49;34.85;;;20.77;;
56321;SDS011;42227;6.376;-10.782;2024-02-21T01:27:17;31.55;;;17.42;;
56321;SDS011;42227;6.376;-10.782;2024-02-21T01:29:45;23.17;;;16.73;;
56321;SDS011;42227;6.376;-10.782;2024-02-21T01:32:14;39.85;;;15.95;;
56321;SDS011;42227;6.376;-10.782;2024-02-21T01:34:43;25.15;;;15.93;;
56321;SDS011;42227;6.376;-10.782;2024-02-21T01:37:11;24.95;;;14.15;;
56321;SDS011;42227;6.376;-10.782;2024-02-21T01:39:39;18.23;;;11.73;;
56321;SDS011;42227;6.376;-10.782;2024-02-21T01:42:08;23.02;;;13.63;;
56321;SDS011;42227;6.376;-10.782;2024-02-21T01:44:36;31.27;;;16.83;;
56321;SDS011;42227;6.376;-10.782;2024-02-21T01:47:04;48.38;;;18.35;;
56321;SDS011;42227;6.376;-10.782;2024-02-21T01:49:33;34.03;;;18.98;;
56321;SDS011;42227;6.376;-10.782;2024-02-21T01:52:02;28.73;;;19.58;;
56321;SDS011;42227;6.376;-10.782;2024-02-21T01:54:31;34.83;;;21.25;;
56321;SDS011;42227;6.376;-10.782;2024-02-21T01:57:00;40.25;;;24.05;;
56321;SDS011;42227;6.376;-10.782;2024-02-21T01:59:29;61.15;;;30.98;;
56321;SDS011;42227;6.376;-10.782;2024-02-21T02:01:57;50.53;;;29.60;;
56321;SDS011;42227;6.376;-10.782;2024-02-21T02:04:27;30.40;;;20.05;;
56321;SDS011;42227;6.376;-10.782;2024-02-21T02:06:56;27.38;;;17.52;;
56321;SDS011;42227;6.376;-10.782;2024-02-21T02:09:27;29.45;;;19.38;;
56321;SDS011;42227;6.376;-10.782;2024-02-21T02:11:56;41.95;;;21.73;;
56321;SDS011;42227;6.376;-10.782;2024-02-21T02:14:24;39.13;;;22.52;;
56321;SDS011;42227;6.376;-10.782;2024-02-21T02:16:53;32.58;;;18.55;;
56321;SDS011;42227;6.376;-10.782;2024-02-21T02:19:25;34.72;;;17.05;;
56321;SDS011;42227;6.376;-10.782;2024-02-21T02:21:54;34.58;;;21.35;;
56321;SDS011;42227;6.376;-10.782;2024-02-21T02:24:29;38.95;;;27.00;;
56321;SDS011;42227;6.376;-10.782;2024-02-21T02:26:57;84.57;;;45.85;;
56321;SDS011;42227;6.376;-10.782;2024-02-21T02:29:25;79.38;;;44.45;;
56321;SDS011;42227;6.376;-10.782;2024-02-21T02:31:54;75.43;;;45.75;;
56321;SDS011;42227;6.376;-10.782;2024-02-21T02:34:22;56.97;;;35.38;;
56321;SDS011;42227;6.376;-10.782;2024-02-21T02:36:51;41.35;;;23.40;;
56321;SDS011;42227;6.376;-10.782;2024-02-21T02:39:19;29.88;;;21.02;;
56321;SDS011;42227;6.376;-10.782;2024-02-21T02:41:47;35.47;;;18.85;;
56321;SDS011;42227;6.376;-10.782;2024-02-21T02:44:16;27.13;;;17.17;;
56321;SDS011;42227;6.376;-10.782;2024-02-21T02:46:44;38.85;;;18.50;;
56321;SDS011;42227;6.376;-10.782;2024-02-21T02:49:12;37.33;;;19.60;;
56321;SDS011;42227;6.376;-10.782;2024-02-21T02:51:44;45.88;;;25.25;;
56321;SDS011;42227;6.376;-10.782;2024-02-21T02:54:12;71.68;;;32.58;;
56321;SDS011;42227;6.376;-10.782;2024-02-21T02:56:40;60.72;;;32.35;;
56321;SDS011;42227;6.376;-10.782;2024-02-21T02:59:09;46.28;;;24.42;;
56321;SDS011;42227;6.376;-10.782;2024-02-21T03:01:37;39.85;;;23.58;;
56321;SDS011;42227;6.376;-10.782;2024-02-21T03:04:06;55.00;;;24.05;;
56321;SDS011;42227;6.376;-10.782;2024-02-21T03:06:34;41.75;;;23.30;;
56321;SDS011;42227;6.376;-10.782;2024-02-21T03:09:03;66.05;;;32.20;;
56321;SDS011;42227;6.376;-10.782;2024-02-21T03:11:31;77.50;;;40.33;;
56321;SDS011;42227;6.376;-10.782;2024-02-21T03:14:00;77.18;;;39.75;;
56321;SDS011;42227;6.376;-10.782;2024-02-21T03:16:29;68.28;;;36.85;;
56321;SDS011;42227;6.376;-10.782;2024-02-21T03:18:57;76.60;;;40.85;;
56321;SDS011;42227;6.376;-10.782;2024-02-21T03:21:25;66.05;;;36.33;;
56321;SDS011;42227;6.376;-10.782;2024-02-21T03:23:54;82.70;;;41.50;;
56321;SDS011;42227;6.376;-10.782;2024-02-21T03:26:22;74.05;;;37.67;;
56321;SDS011;42227;6.376;-10.782;2024-02-21T03:28:50;70.15;;;37.40;;
56321;SDS011;42227;6.376;-10.782;2024-02-21T03:31:19;73.13;;;39.88;;
56321;SDS011;42227;6.376;-10.782;2024-02-21T03:33:47;70.50;;;37.88;;
56321;SDS011;42227;6.376;-10.782;2024-02-21T03:36:16;81.18;;;38.53;;
56321;SDS011;42227;6.376;-10.782;2024-02-21T03:38:44;69.25;;;39.95;;
56321;SDS011;42227;6.376;-10.782;2024-02-21T03:41:12;67.70;;;40.72;;
56321;SDS011;42227;6.376;-10.782;2024-02-21T03:43:41;76.47;;;39.22;;
56321;SDS011;42227;6.376;-10.782;2024-02-21T03:46:09;71.38;;;41.35;;
56321;SDS011;42227;6.376;-10.782;2024-02-21T03:48:38;78.68;;;44.20;;
56321;SDS011;42227;6.376;-10.782;2024-02-21T03:51:06;80.43;;;41.40;;
56321;SDS011;42227;6.376;-10.782;2024-02-21T03:53:34;89.05;;;44.53;;
56321;SDS011;42227;6.376;-10.782;2024-02-21T03:56:03;79.35;;;48.50;;
56321;SDS011;42227;6.376;-10.782;2024-02-21T03:58:32;81.28;;;42.15;;
56321;SDS011;42227;6.376;-10.782;2024-02-21T04:01:01;59.53;;;38.05;;
56321;SDS011;42227;6.376;-10.782;2024-02-21T04:03:30;64.47;;;41.58;;
56321;SDS011;42227;6.376;-10.782;2024-02-21T04:05:58;141.82;;;82.30;;
56321;SDS011;42227;6.376;-10.782;2024-02-21T04:08:27;166.65;;;99.63;;
56321;SDS011;42227;6.376;-10.782;2024-02-21T04:10:55;213.57;;;125.05;;
56321;SDS011;42227;6.376;-10.782;2024-02-21T04:13:24;159.15;;;93.65;;
56321;SDS011;42227;6.376;-10.782;2024-02-21T04:15:52;156.05;;;87.82;;
56321;SDS011;42227;6.376;-10.782;2024-02-21T04:18:21;123.20;;;79.00;;
56321;SDS011;42227;6.376;-10.782;2024-02-21T04:20:50;164.82;;;103.45;;
56321;SDS011;42227;6.376;-10.782;2024-02-21T04:23:19;255.35;;;161.48;;
56321;SDS011;42227;6.376;-10.782;2024-02-21T04:25:47;338.45;;;231.48;;
56321;SDS011;42227;6.376;-10.782;2024-02-21T04:28:16;263.95;;;168.48;;
56321;SDS011;42227;6.376;-10.782;2024-02-21T04:30:44;125.10;;;76.78;;
56321;SDS011;42227;6.376;-10.782;2024-02-21T04:33:13;108.40;;;70.50;;
56321;SDS011;42227;6.376;-10.782;2024-02-21T04:35:41;113.35;;;65.40;;
56321;SDS011;42227;6.376;-10.782;2024-02-21T04:38:10;89.85;;;53.50;;
56321;SDS011;42227;6.376;-10.782;2024-02-21T04:40:38;61.25;;;36.20;;
56321;SDS011;42227;6.376;-10.782;2024-02-21T04:43:06;53.03;;;30.40;;
56321;SDS011;42227;6.376;-10.782;2024-02-21T04:45:35;48.03;;;28.05;;
56321;SDS011;42227;6.376;-10.782;2024-02-21T04:48:04;34.05;;;23.58;;
56321;SDS011;42227;6.376;-10.782;2024-02-21T04:50:32;38.10;;;22.15;;
56321;SDS011;42227;6.376;-10.782;2024-02-21T04:53:01;40.88;;;21.63;;
56321;SDS011;42227;6.376;-10.782;2024-02-21T04:55:29;37.95;;;21.90;;
56321;SDS011;42227;6.376;-10.782;2024-02-21T04:57:58;30.35;;;21.45;;
56321;SDS011;42227;6.376;-10.782;2024-02-21T05:00:26;34.42;;;21.20;;
56321;SDS011;42227;6.376;-10.782;2024-02-21T05:02:54;34.60;;;21.13;;
56321;SDS011;42227;6.376;-10.782;2024-02-21T05:05:23;30.23;;;19.75;;
56321;SDS011;42227;6.376;-10.782;2024-02-21T05:07:51;29.85;;;19.20;;
56321;SDS011;42227;6.376;-10.782;2024-02-21T05:10:20;36.58;;;20.73;;
56321;SDS011;42227;6.376;-10.782;2024-02-21T05:12:48;40.03;;;23.73;;
56321;SDS011;42227;6.376;-10.782;2024-02-21T05:15:17;50.15;;;29.23;;
56321;SDS011;42227;6.376;-10.782;2024-02-21T05:17:45;40.25;;;26.40;;
56321;SDS011;42227;6.376;-10.782;2024-02-21T05:20:13;46.35;;;27.67;;
56321;SDS011;42227;6.376;-10.782;2024-02-21T05:22:42;49.08;;;30.08;;
56321;SDS011;42227;6.376;-10.782;2024-02-21T05:25:11;44.20;;;28.38;;
56321;SDS011;42227;6.376;-10.782;2024-02-21T05:27:39;65.50;;;39.20;;
56321;SDS011;42227;6.376;-10.782;2024-02-21T05:30:08;74.07;;;42.58;;
56321;SDS011;42227;6.376;-10.782;2024-02-21T05:32:36;73.97;;;42.92;;
56321;SDS011;42227;6.376;-10.782;2024-02-21T05:35:05;87.78;;;50.17;;
56321;SDS011;42227;6.376;-10.782;2024-02-21T05:37:33;67.07;;;43.80;;
56321;SDS011;42227;6.376;-10.782;2024-02-21T05:40:02;74.28;;;47.30;;
56321;SDS011;42227;6.376;-10.782;2024-02-21T05:42:30;103.93;;;53.95;;
56321;SDS011;42227;6.376;-10.782;2024-02-21T05:44:59;73.80;;;47.72;;
56321;SDS011;42227;6.376;-10.782;2024-02-21T05:47:27;76.50;;;43.60;;
56321;SDS011;42227;6.376;-10.782;2024-02-21T05:49:55;87.60;;;47.95;;
56321;SDS011;42227;6.376;-10.782;2024-02-21T05:52:24;71.70;;;45.85;;
56321;SDS011;42227;6.376;-10.782;2024-02-21T05:54:52;60.80;;;38.85;;
56321;SDS011;42227;6.376;-10.782;2024-02-21T05:57:20;59.53;;;37.78;;
56321;SDS011;42227;6.376;-10.782;2024-02-21T05:59:49;51.65;;;36.45;;
56321;SDS011;42227;6.376;-10.782;2024-02-21T06:02:17;73.60;;;40.05;;
56321;SDS011;42227;6.376;-10.782;2024-02-21T06:04:46;93.05;;;53.85;;
56321;SDS011;42227;6.376;-10.782;2024-02-21T06:07:14;63.03;;;44.22;;
56321;SDS011;42227;6.376;-10.782;2024-02-21T06:09:42;61.00;;;40.38;;
56321;SDS011;42227;6.376;-10.782;2024-02-21T06:12:11;55.60;;;37.85;;
56321;SDS011;42227;6.376;-10.782;2024-02-21T06:14:39;50.63;;;35.55;;
56321;SDS011;42227;6.376;-10.782;2024-02-21T06:17:08;57.67;;;37.88;;
56321;SDS011;42227;6.376;-10.782;2024-02-21T06:19:36;44.17;;;31.30;;
56321;SDS011;42227;6.376;-10.782;2024-02-21T06:22:07;48.08;;;31.38;;
56321;SDS011;42227;6.376;-10.782;2024-02-21T06:24:35;43.17;;;28.80;;
56321;SDS011;42227;6.376;-10.782;2024-02-21T06:27:07;46.53;;;32.17;;
56321;SDS011;42227;6.376;-10.782;2024-02-21T06:29:37;56.50;;;36.35;;
56321;SDS011;42227;6.376;-10.782;2024-02-21T06:32:05;60.00;;;40.35;;
56321;SDS011;42227;6.376;-10.782;2024-02-21T06:34:34;58.10;;;36.80;;
56321;SDS011;42227;6.376;-10.782;2024-02-21T06:37:03;71.82;;;45.00;;
56321;SDS011;42227;6.376;-10.782;2024-02-21T06:39:31;70.90;;;45.55;;
56321;SDS011;42227;6.376;-10.782;2024-02-21T06:44:38;55.58;;;40.13;;
56321;SDS011;42227;6.376;-10.782;2024-02-21T06:47:07;53.50;;;35.72;;
56321;SDS011;42227;6.376;-10.782;2024-02-21T06:49:36;54.03;;;33.25;;
56321;SDS011;42227;6.376;-10.782;2024-02-21T06:52:04;61.85;;;34.75;;
56321;SDS011;42227;6.376;-10.782;2024-02-21T06:54:33;45.50;;;31.20;;
56321;SDS011;42227;6.376;-10.782;2024-02-21T06:57:01;49.20;;;28.90;;
56321;SDS011;42227;6.376;-10.782;2024-02-21T06:59:30;52.28;;;33.53;;
56321;SDS011;42227;6.376;-10.782;2024-02-21T07:01:58;55.42;;;40.60;;
56321;SDS011;42227;6.376;-10.782;2024-02-21T07:04:26;53.00;;;38.45;;
56321;SDS011;42227;6.376;-10.782;2024-02-21T07:06:55;66.60;;;42.53;;
56321;SDS011;42227;6.376;-10.782;2024-02-21T07:09:23;69.70;;;43.72;;
56321;SDS011;42227;6.376;-10.782;2024-02-21T07:11:52;66.93;;;48.47;;
56321;SDS011;42227;6.376;-10.782;2024-02-21T07:14:20;53.55;;;34.83;;
56321;SDS011;42227;6.376;-10.782;2024-02-21T07:16:49;57.83;;;34.22;;
56321;SDS011;42227;6.376;-10.782;2024-02-21T07:19:17;65.38;;;42.47;;
56321;SDS011;42227;6.376;-10.782;2024-02-21T07:21:45;65.68;;;42.45;;
56321;SDS011;42227;6.376;-10.782;2024-02-21T07:24:14;50.10;;;33.47;;
56321;SDS011;42227;6.376;-10.782;2024-02-21T07:26:42;48.33;;;31.48;;
56321;SDS011;42227;6.376;-10.782;2024-02-21T07:29:11;51.88;;;28.95;;
56321;SDS011;42227;6.376;-10.782;2024-02-21T07:31:40;45.00;;;27.60;;
56321;SDS011;42227;6.376;-10.782;2024-02-21T07:34:09;44.45;;;26.27;;
56321;SDS011;42227;6.376;-10.782;2024-02-21T07:36:38;41.22;;;25.73;;
56321;SDS011;42227;6.376;-10.782;2024-02-21T07:39:06;51.20;;;27.83;;
56321;SDS011;42227;6.376;-10.782;2024-02-21T07:41:34;48.55;;;30.88;;
56321;SDS011;42227;6.376;-10.782;2024-02-21T07:44:03;77.32;;;36.30;;
56321;SDS011;42227;6.376;-10.782;2024-02-21T07:46:32;55.50;;;34.80;;
56321;SDS011;42227;6.376;-10.782;2024-02-21T07:49:00;50.80;;;31.00;;
56321;SDS011;42227;6.376;-10.782;2024-02-21T07:51:28;43.65;;;28.10;;
56321;SDS011;42227;6.376;-10.782;2024-02-21T07:53:57;45.75;;;28.40;;
56321;SDS011;42227;6.376;-10.782;2024-02-21T07:56:27;50.03;;;27.48;;
56321;SDS011;42227;6.376;-10.782;2024-02-21T07:58:55;53.13;;;31.83;;
56321;SDS011;42227;6.376;-10.782;2024-02-21T08:01:24;48.13;;;25.60;;
56321;SDS011;42227;6.376;-10.782;2024-02-21T08:03:52;38.25;;;24.25;;
56321;SDS011;42227;6.376;-10.782;2024-02-21T08:06:21;31.17;;;20.63;;
56321;SDS011;42227;6.376;-10.782;2024-02-21T08:08:50;36.72;;;21.55;;
56321;SDS011;42227;6.376;-10.782;2024-02-21T08:11:18;37.78;;;23.02;;
56321;SDS011;42227;6.376;-10.782;2024-02-21T08:13:46;30.08;;;16.92;;
56321;SDS011;42227;6.376;-10.782;2024-02-21T08:16:15;28.13;;;17.90;;
56321;SDS011;42227;6.376;-10.782;2024-02-21T08:18:46;24.88;;;18.55;;
56321;SDS011;42227;6.376;-10.782;2024-02-21T08:21:15;31.50;;;20.10;;
56321;SDS011;42227;6.376;-10.782;2024-02-21T08:23:43;25.23;;;17.65;;
56321;SDS011;42227;6.376;-10.782;2024-02-21T08:26:11;34.15;;;15.52;;
56321;SDS011;42227;6.376;-10.782;2024-02-21T08:28:40;36.75;;;17.67;;
56321;SDS011;42227;6.376;-10.782;2024-02-21T08:31:08;23.05;;;19.45;;
56321;SDS011;42227;6.376;-10.782;2024-02-21T08:33:36;25.35;;;16.70;;
56321;SDS011;42227;6.376;-10.782;2024-02-21T08:36:05;29.23;;;17.52;;
56321;SDS011;42227;6.376;-10.782;2024-02-21T08:38:33;25.73;;;16.52;;
56321;SDS011;42227;6.376;-10.782;2024-02-21T08:41:02;26.80;;;14.52;;
56321;SDS011;42227;6.376;-10.782;2024-02-21T08:43:33;36.70;;;15.15;;
56321;SDS011;42227;6.376;-10.782;2024-02-21T08:46:01;24.55;;;14.23;;
56321;SDS011;42227;6.376;-10.782;2024-02-21T08:48:30;26.48;;;14.48;;
56321;SDS011;42227;6.376;-10.782;2024-02-21T08:50:58;26.35;;;12.80;;
56321;SDS011;42227;6.376;-10.782;2024-02-21T08:53:27;20.63;;;12.68;;
56321;SDS011;42227;6.376;-10.782;2024-02-21T08:55:55;31.15;;;13.40;;
56321;SDS011;42227;6.376;-10.782;2024-02-21T08:58:24;29.70;;;13.55;;
56321;SDS011;42227;6.376;-10.782;2024-02-21T09:00:52;29.52;;;13.48;;
56321;SDS011;42227;6.376;-10.782;2024-02-21T09:03:20;19.08;;;12.48;;
56321;SDS011;42227;6.376;-10.782;2024-02-21T09:05:49;28.50;;;14.80;;
56321;SDS011;42227;6.376;-10.782;2024-02-21T09:08:17;33.63;;;13.57;;
56321;SDS011;42227;6.376;-10.782;2024-02-21T09:10:45;27.13;;;13.50;;
56321;SDS011;42227;6.376;-10.782;2024-02-21T09:13:14;30.55;;;12.98;;
56321;SDS011;42227;6.376;-10.782;2024-02-21T09:15:42;17.17;;;11.68;;
56321;SDS011;42227;6.376;-10.782;2024-02-21T09:18:11;19.40;;;13.27;;
56321;SDS011;42227;6.376;-10.782;2024-02-21T09:20:39;27.25;;;15.18;;
56321;SDS011;42227;6.376;-10.782;2024-02-21T09:23:07;19.83;;;13.05;;
56321;SDS011;42227;6.376;-10.782;2024-02-21T09:25:36;32.45;;;26.05;;
56321;SDS011;42227;6.376;-10.782;2024-02-21T09:28:05;19.88;;;13.77;;
56321;SDS011;42227;6.376;-10.782;2024-02-21T09:30:33;31.05;;;15.20;;
56321;SDS011;42227;6.376;-10.782;2024-02-21T09:35:33;21.92;;;12.05;;
56321;SDS011;42227;6.376;-10.782;2024-02-21T09:38:01;19.42;;;11.57;;
56321;SDS011;42227;6.376;-10.782;2024-02-21T09:40:30;21.42;;;11.35;;
56321;SDS011;42227;6.376;-10.782;2024-02-21T09:43:02;23.70;;;12.20;;
56321;SDS011;42227;6.376;-10.782;2024-02-21T09:45:31;19.55;;;10.95;;
56321;SDS011;42227;6.376;-10.782;2024-02-21T09:48:16;29.95;;;12.43;;
56321;SDS011;42227;6.376;-10.782;2024-02-21T09:50:47;26.75;;;12.43;;
56321;SDS011;42227;6.376;-10.782;2024-02-21T09:53:18;27.90;;;12.07;;
56321;SDS011;42227;6.376;-10.782;2024-02-21T09:55:46;27.13;;;12.18;;
56321;SDS011;42227;6.376;-10.782;2024-02-21T09:58:16;19.70;;;12.13;;
56321;SDS011;42227;6.376;-10.782;2024-02-21T10:00:44;30.05;;;13.60;;
56321;SDS011;42227;6.376;-10.782;2024-02-21T10:03:13;33.38;;;14.20;;
56321;SDS011;42227;6.376;-10.782;2024-02-21T10:05:46;25.05;;;14.40;;
56321;SDS011;42227;6.376;-10.782;2024-02-21T10:08:16;36.67;;;17.70;;
56321;SDS011;42227;6.376;-10.782;2024-02-21T10:10:45;42.47;;;16.98;;
56321;SDS011;42227;6.376;-10.782;2024-02-21T10:13:26;25.75;;;14.05;;
56321;SDS011;42227;6.376;-10.782;2024-02-21T10:16:02;27.15;;;13.50;;
56321;SDS011;42227;6.376;-10.782;2024-02-21T10:18:34;30.98;;;15.32;;
56321;SDS011;42227;6.376;-10.782;2024-02-21T10:21:04;30.10;;;14.30;;
56321;SDS011;42227;6.376;-10.782;2024-02-21T10:23:49;35.38;;;16.73;;
56321;SDS011;42227;6.376;-10.782;2024-02-21T10:26:19;33.10;;;16.35;;
56321;SDS011;42227;6.376;-10.782;2024-02-21T10:28:47;34.58;;;14.18;;
56321;SDS011;42227;6.376;-10.782;2024-02-21T10:31:25;29.48;;;14.88;;
56321;SDS011;42227;6.376;-10.782;2024-02-21T10:33:56;39.13;;;17.77;;
56321;SDS011;42227;6.376;-10.782;2024-02-21T10:36:28;31.42;;;13.23;;
56321;SDS011;42227;6.376;-10.782;2024-02-21T10:38:57;26.02;;;11.68;;
56321;SDS011;42227;6.376;-10.782;2024-02-21T10:41:25;22.85;;;13.73;;
56321;SDS011;42227;6.376;-10.782;2024-02-21T10:43:54;23.95;;;13.05;;
56321;SDS011;42227;6.376;-10.782;2024-02-21T10:46:23;28.60;;;13.50;;
56321;SDS011;42227;6.376;-10.782;2024-02-21T10:49:15;29.17;;;15.60;;
56321;SDS011;42227;6.376;-10.782;2024-02-21T10:51:47;43.08;;;17.60;;
56321;SDS011;42227;6.376;-10.782;2024-02-21T10:54:24;58.63;;;28.40;;
56321;SDS011;42227;6.376;-10.782;2024-02-21T10:57:14;47.80;;;25.30;;
56321;SDS011;42227;6.376;-10.782;2024-02-21T10:59:44;43.08;;;22.63;;
56321;SDS011;42227;6.376;-10.782;2024-02-21T11:04:44;30.15;;;13.27;;
56321;SDS011;42227;6.376;-10.782;2024-02-21T11:07:13;23.30;;;13.10;;
56321;SDS011;42227;6.376;-10.782;2024-02-21T11:09:50;34.58;;;16.20;;
56321;SDS011;42227;6.376;-10.782;2024-02-21T11:12:20;25.65;;;17.02;;
56321;SDS011;42227;6.376;-10.782;2024-02-21T11:14:50;36.25;;;16.35;;
56321;SDS011;42227;6.376;-10.782;2024-02-21T11:17:19;23.80;;;10.57;;
56321;SDS011;42227;6.376;-10.782;2024-02-21T11:19:48;20.83;;;11.65;;
56321;SDS011;42227;6.376;-10.782;2024-02-21T11:22:17;38.95;;;18.40;;
56321;SDS011;42227;6.376;-10.782;2024-02-21T11:24:47;22.73;;;11.50;;
56321;SDS011;42227;6.376;-10.782;2024-02-21T11:27:16;26.92;;;10.80;;
56321;SDS011;42227;6.376;-10.782;2024-02-21T11:29:49;23.80;;;10.25;;
56321;SDS011;42227;6.376;-10.782;2024-02-21T11:32:22;15.55;;;10.07;;
56321;SDS011;42227;6.376;-10.782;2024-02-21T11:37:26;27.92;;;12.35;;
56321;SDS011;42227;6.376;-10.782;2024-02-21T11:39:55;27.90;;;11.50;;
56321;SDS011;42227;6.376;-10.782;2024-02-21T11:42:25;38.97;;;14.30;;
56321;SDS011;42227;6.376;-10.782;2024-02-21T11:44:54;36.33;;;13.05;;
56321;SDS011;42227;6.376;-10.782;2024-02-21T11:47:24;30.25;;;16.05;;
56321;SDS011;42227;6.376;-10.782;2024-02-21T11:49:53;35.72;;;18.40;;
56321;SDS011;42227;6.376;-10.782;2024-02-21T11:52:22;63.80;;;38.50;;
56321;SDS011;42227;6.376;-10.782;2024-02-21T11:54:52;77.95;;;42.88;;
56321;SDS011;42227;6.376;-10.782;2024-02-21T11:57:21;43.85;;;22.13;;
56321;SDS011;42227;6.376;-10.782;2024-02-21T11:59:50;30.00;;;13.75;;
56321;SDS011;42227;6.376;-10.782;2024-02-21T12:02:25;30.90;;;15.00;;
56321;SDS011;42227;6.376;-10.782;2024-02-21T12:04:54;33.70;;;15.45;;
56321;SDS011;42227;6.376;-10.782;2024-02-21T12:07:23;47.38;;;25.73;;
56321;SDS011;42227;6.376;-10.782;2024-02-21T12:09:51;71.32;;;46.20;;
56321;SDS011;42227;6.376;-10.782;2024-02-21T12:12:20;44.97;;;25.67;;
56321;SDS011;42227;6.376;-10.782;2024-02-21T12:14:53;87.63;;;45.83;;
56321;SDS011;42227;6.376;-10.782;2024-02-21T12:17:25;46.58;;;25.25;;
56321;SDS011;42227;6.376;-10.782;2024-02-21T12:19:54;52.70;;;16.65;;
56321;SDS011;42227;6.376;-10.782;2024-02-21T12:22:22;49.05;;;26.25;;
56321;SDS011;42227;6.376;-10.782;2024-02-21T12:24:52;38.35;;;19.85;;
56321;SDS011;42227;6.376;-10.782;2024-02-21T12:27:21;36.13;;;15.25;;
56321;SDS011;42227;6.376;-10.782;2024-02-21T12:29:49;29.65;;;15.15;;
56321;SDS011;42227;6.376;-10.782;2024-02-21T12:32:17;31.35;;;19.33;;
56321;SDS011;42227;6.376;-10.782;2024-02-21T12:34:46;74.25;;;37.47;;
56321;SDS011;42227;6.376;-10.782;2024-02-21T12:37:21;32.30;;;15.18;;
56321;SDS011;42227;6.376;-10.782;2024-02-21T12:39:51;39.33;;;13.23;;
56321;SDS011;42227;6.376;-10.782;2024-02-21T12:42:20;28.80;;;11.52;;
56321;SDS011;42227;6.376;-10.782;2024-02-21T12:44:48;28.33;;;14.05;;
56321;SDS011;42227;6.376;-10.782;2024-02-21T12:47:17;36.90;;;15.38;;
56321;SDS011;42227;6.376;-10.782;2024-02-21T12:49:46;35.70;;;15.68;;
56321;SDS011;42227;6.376;-10.782;2024-02-21T12:52:14;38.58;;;13.43;;
56321;SDS011;42227;6.376;-10.782;2024-02-21T12:54:43;38.30;;;15.93;;
56321;SDS011;42227;6.376;-10.782;2024-02-21T12:57:11;39.78;;;16.65;;
56321;SDS011;42227;6.376;-10.782;2024-02-21T12:59:39;53.88;;;25.13;;
56321;SDS011;42227;6.376;-10.782;2024-02-21T13:02:08;22.90;;;15.25;;
56321;SDS011;42227;6.376;-10.782;2024-02-21T13:04:36;38.25;;;15.90;;
56321;SDS011;42227;6.376;-10.782;2024-02-21T13:07:04;34.13;;;14.85;;
56321;SDS011;42227;6.376;-10.782;2024-02-21T13:09:35;35.05;;;13.57;;
56321;SDS011;42227;6.376;-10.782;2024-02-21T13:12:03;30.63;;;12.07;;
56321;SDS011;42227;6.376;-10.782;2024-02-21T13:14:32;26.38;;;13.10;;
56321;SDS011;42227;6.376;-10.782;2024-02-21T13:17:00;22.77;;;13.05;;
56321;SDS011;42227;6.376;-10.782;2024-02-21T13:19:29;31.35;;;13.93;;
56321;SDS011;42227;6.376;-10.782;2024-02-21T13:21:57;45.63;;;14.82;;
56321;SDS011;42227;6.376;-10.782;2024-02-21T13:24:26;39.25;;;14.25;;
56321;SDS011;42227;6.376;-10.782;2024-02-21T13:26:54;28.45;;;15.98;;
56321;SDS011;42227;6.376;-10.782;2024-02-21T13:29:23;28.88;;;14.93;;
56321;SDS011;42227;6.376;-10.782;2024-02-21T13:31:51;26.42;;;11.23;;
56321;SDS011;42227;6.376;-10.782;2024-02-21T13:34:19;35.95;;;12.68;;
56321;SDS011;42227;6.376;-10.782;2024-02-21T13:36:48;33.45;;;14.07;;
56321;SDS011;42227;6.376;-10.782;2024-02-21T13:39:17;27.98;;;12.48;;
56321;SDS011;42227;6.376;-10.782;2024-02-21T13:41:45;21.15;;;11.07;;
56321;SDS011;42227;6.376;-10.782;2024-02-21T13:44:13;38.30;;;12.73;;
56321;SDS011;42227;6.376;-10.782;2024-02-21T13:46:42;34.13;;;14.23;;
56321;SDS011;42227;6.376;-10.782;2024-02-21T13:49:11;34.15;;;15.70;;
56321;SDS011;42227;6.376;-10.782;2024-02-21T13:51:39;40.22;;;18.70;;
56321;SDS011;42227;6.376;-10.782;2024-02-21T13:54:08;37.90;;;16.48;;
56321;SDS011;42227;6.376;-10.782;2024-02-21T13:56:37;44.50;;;22.77;;
56321;SDS011;42227;6.376;-10.782;2024-02-21T13:59:05;46.40;;;20.00;;
56321;SDS011;42227;6.376;-10.782;2024-02-21T14:01:34;42.85;;;17.10;;
56321;SDS011;42227;6.376;-10.782;2024-02-21T14:04:02;46.45;;;22.98;;
56321;SDS011;42227;6.376;-10.782;2024-02-21T14:06:30;37.13;;;16.38;;
56321;SDS011;42227;6.376;-10.782;2024-02-21T14:08:59;26.15;;;14.10;;
56321;SDS011;42227;6.376;-10.782;2024-02-21T14:11:27;22.55;;;11.68;;
56321;SDS011;42227;6.376;-10.782;2024-02-21T14:13:56;42.05;;;15.00;;
56321;SDS011;42227;6.376;-10.782;2024-02-21T14:16:25;20.77;;;12.15;;
56321;SDS011;42227;6.376;-10.782;2024-02-21T14:18:53;25.75;;;13.00;;
56321;SDS011;42227;6.376;-10.782;2024-02-21T14:21:22;27.63;;;12.65;;
56321;SDS011;42227;6.376;-10.782;2024-02-21T14:23:50;30.98;;;15.45;;
56321;SDS011;42227;6.376;-10.782;2024-02-21T14:26:19;22.92;;;14.00;;
56321;SDS011;42227;6.376;-10.782;2024-02-21T14:28:47;28.33;;;13.23;;